Terminal Aerodrome Forecast
Issued by NWS Cleveland, OH

Home | Current Version | Previous Version | Text Only | Print | Product List | Glossary Off
Versions: 1 2 3 4 5 6 7 8 9 10 11 12 13 14 15 16 17 18 19 20 21 22 23 24 25 26 27

829
FTUS41 KCLE 211124
TAFCLE
TAF
KCLE 211124Z 2112/2218 16012KT P6SM SCT060 BKN120
     FM211400 18012KT 6SM -SHRA VCTS SCT025 OVC090CB
     FM211700 19014G20KT P6SM VCSH BKN035
     FM212300 22014KT P6SM -SHRA VCTS SCT025 BKN050CB
     FM220200 24010KT P6SM BKN040
     FM220900 23007KT 6SM BR BKN030=

USA.gov is the U.S. government's official web portal to all federal, state and local government web resources and services.